createdAt,value
2023-01-30T00:00:53.506Z,6.07
2023-01-30T00:03:21.350Z,2.63
2023-01-30T00:05:48.934Z,4.50
2023-01-30T00:08:17.937Z,3.87
2023-01-30T00:10:45.492Z,5.00
2023-01-30T00:13:14.497Z,4.33
2023-01-30T00:15:42.212Z,6.30
2023-01-30T00:18:09.989Z,3.60
2023-01-30T00:20:37.459Z,3.37
2023-01-30T00:23:05.046Z,4.60
2023-01-30T00:25:33.849Z,5.37
2023-01-30T00:28:01.989Z,4.23
2023-01-30T00:30:31.197Z,5.13
2023-01-30T00:32:59.023Z,3.87
2023-01-30T00:35:28.596Z,2.27
2023-01-30T00:37:56.924Z,5.63
2023-01-30T00:40:24.577Z,6.10
2023-01-30T00:45:58.308Z,5.30
2023-01-30T00:48:25.819Z,4.20
2023-01-30T00:50:53.173Z,4.47
2023-01-30T00:53:20.555Z,3.73
2023-01-30T00:55:48.176Z,2.20
2023-01-30T00:58:16.927Z,3.10
2023-01-30T01:00:44.273Z,4.40
2023-01-30T01:03:11.724Z,3.80
2023-01-30T01:05:39.066Z,6.80
2023-01-30T01:08:06.759Z,4.83
2023-01-30T01:10:34.153Z,5.73
2023-01-30T01:13:01.767Z,4.90
2023-01-30T01:15:30.513Z,3.70
2023-01-30T01:17:57.869Z,3.67
2023-01-30T01:20:26.729Z,4.87
2023-01-30T01:22:54.211Z,3.20
2023-01-30T01:25:21.587Z,4.53
2023-01-30T01:27:49.711Z,3.83
2023-01-30T01:30:17.961Z,4.20
2023-01-30T01:32:46.824Z,3.03
2023-01-30T01:35:14.134Z,6.63
2023-01-30T01:37:41.479Z,5.23
2023-01-30T01:40:27.136Z,5.27
2023-01-30T01:42:54.505Z,3.93
2023-01-30T01:45:23.111Z,5.60
2023-01-30T01:47:58.698Z,4.77
2023-01-30T01:50:27.780Z,6.33
2023-01-30T01:52:56.825Z,5.17
2023-01-30T01:55:29.257Z,4.73
2023-01-30T01:57:58.027Z,5.00
2023-01-30T02:00:26.315Z,5.20
2023-01-30T02:02:57.001Z,5.73
2023-01-30T02:05:24.738Z,4.40
2023-01-30T02:07:54.319Z,6.80
2023-01-30T02:10:22.704Z,4.00
2023-01-30T02:12:51.428Z,5.00
2023-01-30T02:15:20.478Z,3.47
2023-01-30T02:17:48.083Z,6.50
2023-01-30T02:20:22.413Z,5.67
2023-01-30T02:23:08.597Z,4.90
2023-01-30T02:25:55.648Z,4.90
2023-01-30T02:28:42.934Z,3.87
2023-01-30T02:31:17.579Z,4.23
2023-01-30T02:33:49.251Z,6.43
2023-01-30T02:36:20.689Z,5.60
2023-01-30T02:38:50.267Z,4.03
2023-01-30T02:41:23.261Z,5.30
2023-01-30T02:43:56.168Z,6.57
2023-01-30T02:46:27.685Z,7.90
2023-01-30T02:48:57.985Z,6.10
2023-01-30T02:51:29.323Z,7.20
2023-01-30T02:53:57.263Z,2.90
2023-01-30T02:56:24.695Z,5.87
2023-01-30T02:58:54.783Z,3.87
2023-01-30T03:01:41.507Z,6.53
2023-01-30T03:04:18.496Z,3.70
2023-01-30T03:06:56.825Z,6.33
2023-01-30T03:09:31.556Z,5.27
2023-01-30T03:12:01.549Z,4.83
2023-01-30T03:14:31.879Z,4.07
2023-01-30T03:17:03.692Z,6.40
2023-01-30T03:19:33.854Z,4.37
2023-01-30T03:22:01.677Z,4.13
2023-01-30T03:24:29.106Z,7.33
2023-01-30T03:26:59.454Z,6.47
2023-01-30T03:29:27.020Z,7.00
2023-01-30T03:31:54.555Z,4.50
2023-01-30T03:34:21.907Z,7.43
2023-01-30T03:36:51.349Z,5.57
2023-01-30T03:39:18.751Z,5.77
2023-01-30T03:41:46.746Z,5.40
2023-01-30T03:44:16.679Z,5.67
2023-01-30T03:46:44.115Z,6.90
2023-01-30T03:49:11.463Z,5.90
2023-01-30T03:51:38.812Z,5.97
2023-01-30T03:54:07.560Z,5.30
2023-01-30T03:56:34.872Z,6.67
2023-01-30T03:59:02.401Z,7.97
2023-01-30T04:01:37.941Z,3.97
2023-01-30T04:04:06.026Z,4.23
2023-01-30T04:06:35.710Z,7.23
2023-01-30T04:09:03.727Z,6.17
2023-01-30T04:11:43.239Z,4.03
2023-01-30T04:14:10.560Z,5.30
2023-01-30T04:16:49.201Z,5.90
2023-01-30T04:19:36.913Z,5.10
2023-01-30T04:22:05.261Z,4.87
2023-01-30T04:24:33.164Z,4.73
2023-01-30T04:27:01.816Z,4.07
2023-01-30T04:29:29.879Z,5.93
2023-01-30T04:31:57.521Z,3.77
2023-01-30T04:34:28.247Z,5.03
2023-01-30T04:36:55.612Z,3.13
2023-01-30T04:39:23.491Z,6.37
2023-01-30T04:41:51.981Z,4.03
2023-01-30T04:44:21.069Z,7.23
2023-01-30T04:47:09.808Z,4.03
2023-01-30T04:49:37.198Z,6.73
2023-01-30T04:52:06.525Z,4.93
2023-01-30T04:54:34.012Z,3.07
2023-01-30T04:57:01.999Z,6.10
2023-01-30T04:59:30.973Z,6.17
2023-01-30T05:02:01.792Z,5.57
2023-01-30T05:04:29.350Z,6.93
2023-01-30T05:06:56.695Z,3.47
2023-01-30T05:09:24.825Z,5.87
2023-01-30T05:11:52.193Z,6.03
2023-01-30T05:14:19.611Z,5.03
2023-01-30T05:16:48.315Z,6.17
2023-01-30T05:19:15.907Z,6.07
2023-01-30T05:21:43.230Z,5.03
2023-01-30T05:24:10.625Z,5.10
2023-01-30T05:26:38.017Z,6.00
2023-01-30T05:29:05.519Z,6.50
2023-01-30T05:31:35.257Z,4.97
2023-01-30T05:34:03.987Z,6.27
2023-01-30T05:36:31.355Z,7.07
2023-01-30T05:38:58.766Z,2.33
2023-01-30T05:41:26.111Z,5.40
2023-01-30T05:43:53.522Z,4.47
2023-01-30T05:46:20.953Z,2.57
2023-01-30T05:48:48.422Z,4.33
2023-01-30T05:51:18.887Z,5.07
2023-01-30T05:53:46.653Z,7.47
2023-01-30T05:56:14.116Z,4.30
2023-01-30T05:58:41.803Z,4.73
2023-01-30T06:01:10.588Z,4.60
2023-01-30T06:03:38.221Z,5.83
2023-01-30T06:06:06.996Z,3.50
2023-01-30T06:08:35.948Z,5.27
2023-01-30T06:11:03.725Z,6.80
2023-01-30T06:13:31.125Z,5.23
2023-01-30T06:15:58.626Z,7.53
2023-01-30T06:18:26.102Z,6.07
2023-01-30T06:20:53.884Z,3.00
2023-01-30T06:23:23.491Z,6.30
2023-01-30T06:25:53.340Z,4.67
2023-01-30T06:28:21.105Z,5.63
2023-01-30T06:30:48.738Z,7.90
2023-01-30T06:33:16.325Z,3.80
2023-01-30T06:35:44.417Z,6.73
2023-01-30T06:38:14.095Z,4.27
2023-01-30T06:40:42.233Z,6.03
2023-01-30T06:43:10.979Z,6.87
2023-01-30T06:45:38.510Z,7.07
2023-01-30T06:48:06.201Z,3.63
2023-01-30T06:50:33.842Z,5.80
2023-01-30T06:53:02.850Z,5.30
2023-01-30T06:55:30.613Z,6.00
2023-01-30T06:58:04.661Z,5.10
2023-01-30T07:00:33.973Z,2.73
2023-01-30T07:03:01.578Z,5.43
2023-01-30T07:05:29.839Z,6.97
2023-01-30T07:07:57.269Z,6.63
2023-01-30T07:10:26.152Z,5.97
2023-01-30T07:12:54.285Z,4.73
2023-01-30T07:15:21.786Z,4.43
2023-01-30T07:17:50.611Z,5.80
2023-01-30T07:20:18.045Z,7.57
2023-01-30T07:22:49.699Z,5.90
2023-01-30T07:25:17.772Z,7.13
2023-01-30T07:27:50.524Z,5.87
2023-01-30T07:30:18.265Z,6.13
2023-01-30T07:32:45.735Z,5.87
2023-01-30T07:35:15.043Z,4.97
2023-01-30T07:37:42.486Z,4.63
2023-01-30T07:40:10.659Z,5.63
2023-01-30T07:42:38.041Z,5.93
2023-01-30T07:45:05.784Z,4.40
2023-01-30T07:47:33.624Z,6.40
2023-01-30T07:50:04.368Z,5.30
2023-01-30T07:52:33.989Z,4.77
2023-01-30T07:55:01.815Z,4.60
2023-01-30T07:57:29.614Z,5.00
2023-01-30T07:59:57.170Z,5.90
2023-01-30T08:02:24.645Z,5.40
2023-01-30T08:04:52.368Z,5.40
2023-01-30T08:07:20.106Z,4.10
2023-01-30T08:09:48.804Z,5.27
2023-01-30T08:12:16.220Z,5.27
2023-01-30T08:14:43.872Z,4.60
2023-01-30T08:17:11.290Z,5.40
2023-01-30T08:19:38.774Z,3.97
2023-01-30T08:22:12.298Z,4.20
2023-01-30T08:24:39.779Z,6.40
2023-01-30T08:27:08.538Z,7.10
2023-01-30T08:29:36.120Z,5.67
2023-01-30T08:32:03.722Z,5.33
2023-01-30T08:34:31.228Z,3.53
2023-01-30T08:36:58.688Z,5.87
2023-01-30T08:39:26.135Z,5.13
2023-01-30T08:41:53.599Z,5.37
2023-01-30T08:47:49.216Z,5.77
2023-01-30T08:50:18.828Z,4.23
2023-01-30T08:52:46.820Z,4.50
2023-01-30T08:55:14.585Z,3.47
2023-01-30T08:57:42.489Z,4.33
2023-01-30T09:00:10.767Z,3.90
2023-01-30T09:02:38.748Z,3.87
2023-01-30T09:05:08.423Z,4.70
2023-01-30T09:07:39.139Z,4.20
2023-01-30T09:10:32.998Z,5.17
2023-01-30T09:13:06.575Z,3.80
2023-01-30T09:15:34.252Z,4.17
2023-01-30T09:18:04.058Z,4.97
2023-01-30T09:20:33.104Z,4.00
2023-01-30T09:23:00.597Z,3.20
2023-01-30T09:25:28.132Z,4.00
2023-01-30T09:28:13.459Z,2.43
2023-01-30T09:31:08.707Z,2.40
2023-01-30T09:33:39.686Z,2.20
2023-01-30T09:36:09.623Z,2.07
2023-01-30T09:38:37.083Z,1.77
2023-01-30T09:41:11.786Z,2.10
2023-01-30T09:43:48.664Z,1.27
2023-01-30T09:46:23.173Z,1.93
2023-01-30T09:48:56.789Z,1.90
2023-01-30T09:51:34.007Z,1.43
2023-01-30T09:54:11.334Z,1.83
2023-01-30T09:56:38.844Z,2.43
2023-01-30T09:59:06.877Z,2.40
2023-01-30T10:01:38.231Z,1.60
2023-01-30T10:04:13.178Z,2.07
2023-01-30T10:06:57.892Z,1.47
2023-01-30T10:09:30.896Z,1.97
2023-01-30T10:12:10.356Z,1.70
2023-01-30T10:14:51.074Z,1.43
2023-01-30T10:17:28.528Z,1.80
2023-01-30T10:20:06.798Z,1.60
2023-01-30T10:22:40.972Z,1.30
2023-01-30T10:31:50.649Z,1.60
2023-01-30T10:34:20.687Z,1.63
2023-01-30T10:36:52.681Z,2.10
2023-01-30T10:39:25.031Z,1.40
2023-01-30T10:41:55.813Z,1.70
2023-01-30T10:44:23.940Z,1.30
2023-01-30T10:46:59.422Z,1.70
2023-01-30T10:49:32.393Z,1.67
2023-01-30T10:52:03.026Z,1.70
2023-01-30T10:54:33.967Z,1.03
2023-01-30T10:57:04.828Z,2.20
2023-01-30T10:59:43.252Z,1.87
2023-01-30T11:02:28.439Z,1.60
2023-01-30T11:05:05.922Z,1.50
2023-01-30T11:07:34.341Z,1.50
2023-01-30T11:10:03.140Z,1.17
2023-01-30T11:12:30.539Z,1.10
2023-01-30T11:15:04.337Z,1.07
2023-01-30T11:17:34.387Z,1.43
2023-01-30T11:20:11.198Z,1.60
2023-01-30T11:22:46.427Z,1.73
2023-01-30T11:25:18.624Z,1.47
2023-01-30T11:27:52.424Z,1.33
2023-01-30T11:30:21.338Z,1.40
2023-01-30T11:32:50.265Z,1.43
2023-01-30T11:35:23.792Z,1.33
2023-01-30T11:37:53.488Z,1.47
2023-01-30T11:40:28.627Z,1.73
2023-01-30T11:43:02.396Z,2.03
2023-01-30T11:45:32.473Z,1.50
2023-01-30T11:48:04.606Z,1.60
2023-01-30T11:50:37.146Z,0.93
2023-01-30T11:53:18.149Z,1.33
2023-01-30T11:56:02.155Z,1.80
2023-01-30T11:58:32.676Z,1.87
2023-01-30T12:01:00.869Z,2.03
2023-01-30T12:03:29.674Z,2.00
2023-01-30T12:05:58.134Z,1.97
2023-01-30T12:08:40.593Z,2.03
2023-01-30T12:11:25.016Z,2.17
2023-01-30T12:13:52.930Z,1.57
2023-01-30T12:16:23.016Z,1.93
2023-01-30T12:18:57.131Z,2.07
2023-01-30T12:21:33.071Z,1.47
2023-01-30T12:24:03.919Z,1.23
2023-01-30T12:26:36.434Z,0.87
2023-01-30T12:29:07.410Z,1.10
2023-01-30T12:31:37.711Z,1.87
2023-01-30T12:34:05.357Z,1.40
2023-01-30T12:36:36.656Z,2.70
2023-01-30T12:39:15.301Z,0.90
2023-01-30T12:41:49.495Z,1.60
2023-01-30T12:44:47.168Z,1.47
2023-01-30T12:47:25.122Z,1.80
2023-01-30T12:50:22.559Z,1.70
2023-01-30T12:52:57.438Z,1.87
2023-01-30T12:55:31.074Z,0.80
2023-01-30T12:58:01.664Z,1.90
2023-01-30T13:00:34.469Z,1.50
2023-01-30T13:03:08.928Z,1.60
2023-01-30T13:05:41.127Z,2.30
2023-01-30T13:08:13.497Z,1.73
2023-01-30T13:10:45.734Z,2.03
2023-01-30T13:13:18.802Z,1.47
2023-01-30T13:15:49.025Z,1.43
2023-01-30T13:18:19.404Z,1.23
2023-01-30T13:20:53.007Z,1.40
2023-01-30T13:23:23.527Z,1.53
2023-01-30T13:25:56.262Z,1.50
2023-01-30T13:28:27.042Z,1.00
2023-01-30T13:30:56.627Z,1.13
2023-01-30T13:33:26.294Z,1.70
2023-01-30T13:35:57.430Z,1.20
2023-01-30T13:38:26.625Z,0.70
2023-01-30T13:40:56.359Z,1.07
2023-01-30T13:43:27.501Z,1.80
2023-01-30T13:45:56.577Z,1.43
2023-01-30T13:48:35.587Z,1.33
2023-01-30T13:51:15.419Z,1.60
2023-01-30T13:53:45.769Z,1.53
2023-01-30T13:56:39.546Z,2.00
2023-01-30T13:59:10.858Z,1.93
2023-01-30T14:01:56.985Z,1.97
2023-01-30T14:04:43.083Z,1.63
2023-01-30T14:07:10.663Z,1.67
2023-01-30T14:09:41.471Z,1.00
2023-01-30T14:12:20.109Z,2.30
2023-01-30T14:15:00.586Z,1.67
2023-01-30T14:17:28.306Z,1.93
2023-01-30T14:19:58.588Z,1.97
2023-01-30T14:22:27.620Z,1.50
2023-01-30T14:25:13.485Z,1.20
2023-01-30T14:27:41.000Z,0.90
2023-01-30T14:30:37.080Z,1.40
2023-01-30T14:33:05.108Z,0.90
2023-01-30T14:35:33.320Z,1.80
2023-01-30T14:38:18.735Z,0.83
2023-01-30T14:40:47.222Z,1.10
2023-01-30T14:43:41.818Z,1.97
2023-01-30T14:46:34.497Z,1.10
2023-01-30T14:49:06.819Z,1.10
2023-01-30T14:51:35.683Z,0.93
2023-01-30T14:54:04.802Z,1.40
2023-01-30T14:56:41.266Z,0.60
2023-01-30T14:59:11.038Z,1.17
2023-01-30T15:01:55.215Z,0.70
2023-01-30T15:04:25.455Z,0.90
2023-01-30T15:06:53.110Z,0.60
2023-01-30T15:09:23.045Z,0.87
2023-01-30T15:11:53.412Z,0.83
2023-01-30T15:14:23.192Z,0.50
2023-01-30T15:17:03.111Z,0.40
2023-01-30T15:19:49.188Z,0.97
2023-01-30T15:22:20.338Z,0.90
2023-01-30T15:25:03.198Z,0.87
2023-01-30T15:27:33.207Z,1.00
2023-01-30T15:30:26.196Z,0.90
2023-01-30T15:33:08.198Z,0.87
2023-01-30T15:35:36.936Z,0.93
2023-01-30T15:38:04.314Z,1.33
2023-01-30T15:40:32.407Z,0.90
2023-01-30T15:43:08.267Z,1.50
2023-01-30T15:45:41.588Z,1.10
2023-01-30T15:48:19.317Z,1.27
2023-01-30T15:50:53.606Z,1.00
2023-01-30T15:53:24.822Z,0.80
2023-01-30T15:55:52.954Z,0.97
2023-01-30T15:58:21.639Z,1.27
2023-01-30T16:00:50.317Z,1.13
2023-01-30T16:03:18.979Z,1.23
2023-01-30T16:05:51.237Z,0.63
2023-01-30T16:08:21.872Z,1.20
2023-01-30T16:10:50.506Z,0.93
2023-01-30T16:13:20.790Z,1.47
2023-01-30T16:15:49.764Z,1.63
2023-01-30T16:18:22.626Z,1.60
2023-01-30T16:21:01.728Z,0.90
2023-01-30T16:23:31.336Z,1.07
2023-01-30T16:25:59.313Z,1.43
2023-01-30T16:28:27.819Z,1.40
2023-01-30T16:30:59.190Z,1.30
2023-01-30T16:33:26.800Z,1.40
2023-01-30T16:35:55.483Z,1.67
2023-01-30T16:38:32.185Z,1.23
2023-01-30T16:41:00.963Z,1.50
2023-01-30T16:43:28.657Z,2.10
2023-01-30T16:46:13.891Z,1.27
2023-01-30T16:48:41.686Z,1.30
2023-01-30T16:51:15.081Z,1.97
2023-01-30T16:53:46.664Z,1.90
2023-01-30T16:56:17.026Z,1.70
2023-01-30T16:58:46.867Z,0.97
2023-01-30T17:01:14.414Z,1.47
2023-01-30T17:03:42.976Z,2.07
2023-01-30T17:06:13.127Z,1.20
2023-01-30T17:08:53.927Z,1.83
2023-01-30T17:11:29.770Z,1.60
2023-01-30T17:14:27.186Z,1.87
2023-01-30T17:17:01.161Z,1.27
2023-01-30T17:19:28.762Z,1.50
2023-01-30T17:21:57.216Z,1.87
2023-01-30T17:24:26.643Z,1.87
2023-01-30T17:26:54.866Z,1.30
2023-01-30T17:29:41.360Z,1.60
2023-01-30T17:32:11.436Z,1.00
2023-01-30T17:34:40.948Z,1.43
2023-01-30T17:37:11.101Z,1.67
2023-01-30T17:39:39.746Z,1.87
2023-01-30T17:42:10.145Z,1.47
2023-01-30T17:44:37.485Z,1.53
2023-01-30T17:47:04.860Z,0.87
2023-01-30T17:49:32.231Z,1.60
2023-01-30T17:52:00.279Z,2.80
2023-01-30T17:54:29.969Z,1.73
2023-01-30T17:57:00.968Z,2.20
2023-01-30T17:59:28.537Z,1.00
2023-01-30T18:01:55.947Z,2.00
2023-01-30T18:04:23.510Z,1.77
2023-01-30T18:06:53.191Z,1.13
2023-01-30T18:09:21.177Z,2.00
2023-01-30T18:11:49.109Z,2.10
2023-01-30T18:14:18.358Z,1.53
2023-01-30T18:16:45.816Z,1.67
2023-01-30T18:19:16.120Z,1.60
2023-01-30T18:21:45.312Z,1.67
2023-01-30T18:24:12.864Z,2.17
2023-01-30T18:26:40.625Z,2.17
2023-01-30T18:29:09.569Z,2.33
2023-01-30T18:31:38.893Z,2.77
2023-01-30T18:34:09.391Z,2.30
2023-01-30T18:36:36.909Z,2.40
2023-01-30T18:39:04.482Z,1.87
2023-01-30T18:41:31.870Z,1.47
2023-01-30T18:44:00.393Z,2.97
2023-01-30T18:46:28.122Z,2.70
2023-01-30T18:48:57.333Z,2.27
2023-01-30T18:51:25.994Z,2.13
2023-01-30T18:53:54.351Z,2.63
2023-01-30T18:56:22.626Z,1.60
2023-01-30T18:58:52.285Z,1.83
2023-01-30T19:01:20.657Z,2.00
2023-01-30T19:03:48.452Z,2.33
2023-01-30T19:06:18.832Z,1.93
2023-01-30T19:08:46.548Z,2.10
2023-01-30T19:11:32.480Z,2.27
2023-01-30T19:14:00.006Z,2.50
2023-01-30T19:16:28.437Z,2.83
2023-01-30T19:18:55.911Z,2.13
2023-01-30T19:21:24.999Z,1.50
2023-01-30T19:23:52.328Z,1.90
2023-01-30T19:26:21.334Z,1.43
2023-01-30T19:28:49.126Z,3.10
2023-01-30T19:31:17.668Z,1.90
2023-01-30T19:33:46.059Z,1.60
2023-01-30T19:36:14.478Z,2.07
2023-01-30T19:38:44.594Z,2.87
2023-01-30T19:41:14.579Z,2.50
2023-01-30T19:43:42.582Z,1.90
2023-01-30T19:46:11.911Z,2.17
2023-01-30T19:48:39.682Z,2.63
2023-01-30T19:51:13.479Z,1.50
2023-01-30T19:53:41.521Z,1.23
2023-01-30T19:56:10.986Z,2.57
2023-01-30T19:58:38.881Z,2.90
2023-01-30T20:01:07.436Z,2.10
2023-01-30T20:03:34.895Z,1.57
2023-01-30T20:06:08.845Z,1.83
2023-01-30T20:08:37.459Z,2.00
2023-01-30T20:11:05.204Z,2.77
2023-01-30T20:13:34.687Z,1.87
2023-01-30T20:16:06.480Z,3.03
2023-01-30T20:18:35.170Z,2.93
2023-01-30T20:21:06.696Z,2.77
2023-01-30T20:23:34.212Z,2.30
2023-01-30T20:26:03.652Z,2.80
2023-01-30T20:28:31.084Z,2.83
2023-01-30T20:30:59.968Z,2.20
2023-01-30T20:33:29.112Z,2.17
2023-01-30T20:36:01.125Z,1.83
2023-01-30T20:38:30.298Z,2.50
2023-01-30T20:41:01.412Z,3.07
2023-01-30T20:43:30.545Z,2.60
2023-01-30T20:46:09.754Z,1.50
2023-01-30T20:48:38.531Z,2.23
2023-01-30T20:51:06.690Z,2.20
2023-01-30T20:53:34.319Z,2.50
2023-01-30T20:56:02.582Z,1.97
2023-01-30T20:58:30.471Z,2.47
2023-01-30T21:01:12.073Z,1.40
2023-01-30T21:03:55.019Z,2.43
2023-01-30T21:06:42.602Z,1.73
2023-01-30T21:10:16.354Z,2.03
2023-01-30T21:12:23.001Z,1.40
2023-01-30T21:14:58.030Z,1.83
2023-01-30T21:17:31.137Z,2.80
2023-01-30T21:20:22.515Z,1.57
2023-01-30T21:22:54.083Z,1.20
2023-01-30T21:25:26.191Z,1.60
2023-01-30T21:28:03.987Z,1.77
2023-01-30T21:30:49.792Z,3.27
2023-01-30T21:33:26.109Z,1.60
2023-01-30T21:36:05.371Z,1.60
2023-01-30T21:38:53.018Z,1.43
2023-01-30T21:41:39.548Z,1.53
2023-01-30T21:44:07.355Z,1.40
2023-01-30T21:46:36.849Z,2.20
2023-01-30T21:49:04.392Z,1.33
2023-01-30T21:51:33.261Z,1.50
2023-01-30T21:54:01.894Z,1.83
2023-01-30T21:56:29.358Z,1.93
2023-01-30T21:58:58.532Z,1.73
2023-01-30T22:01:26.275Z,1.63
2023-01-30T22:03:53.891Z,1.70
2023-01-30T22:06:21.694Z,1.43
2023-01-30T22:08:50.501Z,1.33
2023-01-30T22:11:19.495Z,1.60
2023-01-30T22:13:47.171Z,1.20
2023-01-30T22:16:15.394Z,1.77
2023-01-30T22:18:45.169Z,1.20
2023-01-30T22:21:13.882Z,3.40
2023-01-30T22:23:42.062Z,1.37
2023-01-30T22:26:11.422Z,1.43
2023-01-30T22:28:39.714Z,1.37
2023-01-30T22:31:08.025Z,1.93
2023-01-30T22:33:36.358Z,2.13
2023-01-30T22:36:05.190Z,2.27
2023-01-30T22:38:32.722Z,1.10
2023-01-30T22:41:01.854Z,1.70
2023-01-30T22:43:31.603Z,1.83
2023-01-30T22:46:00.766Z,2.03
2023-01-30T22:48:28.425Z,1.60
2023-01-30T22:51:05.996Z,1.80
2023-01-30T22:53:34.102Z,1.60
2023-01-30T22:56:02.808Z,1.47
2023-01-30T22:58:34.667Z,2.60
2023-01-30T23:01:04.879Z,1.30
2023-01-30T23:03:32.547Z,1.70
2023-01-30T23:06:02.902Z,1.30
2023-01-30T23:08:30.803Z,1.70
2023-01-30T23:10:58.702Z,2.17
2023-01-30T23:13:26.267Z,2.43
2023-01-30T23:15:55.043Z,2.77
2023-01-30T23:18:40.284Z,2.13
2023-01-30T23:21:13.672Z,1.70
2023-01-30T23:23:41.218Z,1.77
2023-01-30T23:26:08.653Z,1.83
2023-01-30T23:28:36.608Z,2.17
2023-01-30T23:31:09.110Z,2.60
2023-01-30T23:33:40.079Z,1.97
2023-01-30T23:36:08.549Z,1.93
2023-01-30T23:38:37.864Z,1.23
2023-01-30T23:41:06.248Z,1.67
2023-01-30T23:43:34.031Z,2.03
2023-01-30T23:46:11.213Z,1.40
2023-01-30T23:48:41.624Z,1.80
2023-01-30T23:51:11.923Z,1.70
2023-01-30T23:57:12.571Z,1.40
